This demonstration page uses our WeatherBlox Daily Observations layout. Learn more.

Left ArrowRight Arrow

38.89511, -77.03637

Hourly Observations for April 7, 2021

Temp ( °F °C ) Dew Point ( °F °C ) Humidity (%) Winds ( mph kmh ) Pressure ( in mb ) Visibility ( mi km ) Precip ( " mm )
12:52 am 00:52 Partly Cloudy 58 14.4 47 8.3 67 67 S 6 9 29.98 1015 10 16.0934 0 0
1:52 am 01:52 Partly Cloudy 57 13.9 48 8.9 72 72 S 6 9 29.97 1015 10 16.0934 0 0
2:52 am 02:52 Partly Cloudy 59 15 44 6.7 58 58 Calm 29.97 1015 10 16.0934 0 0
3:52 am 03:52 Partly Cloudy 57 13.9 46 7.8 67 67 SSE 5 7 29.97 1015 10 16.0934 0 0
4:52 am 04:52 Partly Cloudy 57 13.9 44 6.7 62 62 Calm 29.98 1015 10 16.0934 0 0
5:52 am 05:52 Partly Cloudy 56 13.3 44 6.7 65 65 Calm 29.98 1015 10 16.0934 0 0
6:52 am 06:52 Partly Cloudy 55 12.8 44 6.7 67 67 Calm 29.99 1016 10 16.0934 0 0
7:52 am 07:52 Mostly Sunny 55 12.8 44 6.7 67 67 NNE 5 7 30 1016 10 16.0934 0 0
8:52 am 08:52 Mostly Sunny 59 15 42 5.6 54 54 ESE 3 6 30 1016 10 16.0934 0 0
9:52 am 09:52 Mostly Sunny 62 16.7 44 6.7 52 52 SSE 6 9 29.99 1016 10 16.0934 0 0
10:52 am 10:52 Mostly Sunny 67 19.4 44 6.7 44 44 Calm 29.99 1016 10 16.0934 0 0
11:52 am 11:52 Sunny 70 21.1 47 8.3 44 44 S 7 11 29.98 1015 10 16.0934 0 0
12:52 pm 12:52 Sunny 75 23.9 45 7.2 34 34 Calm 29.96 1014 10 16.0934 0 0
1:52 pm 13:52 Mostly Sunny 79 26.1 50 10 36 36 E 6 9 29.93 1014 10 16.0934 0 0
2:52 pm 14:52 Mostly Sunny 80 26.7 50 10 35 35 NE 7 11 29.92 1013 10 16.0934 0 0
3:52 pm 15:52 Partly Cloudy 82 27.8 50 10 33 33 VRB 3 6 29.9 1012 10 16.0934 0 0
4:52 pm 16:52 Mostly Cloudy 76 24.4 53 11.7 45 45 ENE 12 19 29.88 1012 10 16.0934 0 0
5:52 pm 17:52 Mostly Cloudy 74 23.3 52 11.1 46 46 E 8 13 29.9 1013 10 16.0934 0 0
6:52 pm 18:52 Mostly Cloudy 73 22.8 50 10 44 44 E 8 13 29.91 1013 10 16.0934 0 0
7:52 pm 19:52 Mostly Cloudy 70 21.1 50 10 49 49 ESE 3 6 29.91 1013 10 16.0934 0 0
8:52 pm 20:52 Mostly Cloudy 67 19.4 51 10.6 57 57 NE 7 11 29.94 1014 10 16.0934 0 0
9:52 pm 21:52 Mostly Cloudy 68 20 47 8.3 47 47 E 7 11 29.97 1015 10 16.0934 0 0
10:52 pm 22:52 Cloudy 65 18.3 41 5 42 42 ESE 7 11 29.99 1016 10 16.0934 0 0
11:52 pm 23:52 Cloudy 61 16.1 39 3.9 44 44 SE 8 13 30 1016 10 16.0934 0.001 0.001

Powered by AerisWeather